Time;durP1;ratioP1;P1;durP2;ratioP2;P2;SDS_P1;SDS_P2;PMS_P1;PMS_P2;Temp;Humidity;BMP_temperature;BMP_pressure;BME280_temperature;BME280_humidity;BME280_pressure;Samples;Min_cycle;Max_cycle;Signal;HPM_P1;HPM_P2
2021/08/10 00:18:30;;;;;;;11.75;5.43;;;;;;;;;;4298427;31;20407;-72
2021/08/10 00:20:55;;;;;;;7.93;6.35;;;;;;;;;;4304821;33;20099;-71
2021/08/10 00:23:21;;;;;;;10.05;5.60;;;;;;;;;;4305281;33;20088;-71
2021/08/10 00:25:47;;;;;;;12.10;5.40;;;;;;;;;;4305130;33;20617;-71
2021/08/10 00:28:14;;;;;;;9.57;4.87;;;;;;;;;;4305284;33;20110;-71
2021/08/10 00:30:41;;;;;;;11.43;6.45;;;;;;;;;;4291960;33;20126;-71
2021/08/10 00:33:08;;;;;;;16.33;6.62;;;;;;;;;;4305190;33;20229;-71
2021/08/10 00:35:34;;;;;;;12.63;6.55;;;;;;;;;;4278564;33;20570;-71
2021/08/10 00:38:00;;;;;;;13.73;7.43;;;;;;;;;;4290610;33;20116;-71
2021/08/10 00:40:28;;;;;;;14.20;8.00;;;;;;;;;;4277337;33;20231;-70
2021/08/10 00:42:54;;;;;;;18.05;7.90;;;;;;;;;;4265982;33;20123;-70
2021/08/10 00:45:21;;;;;;;16.85;6.97;;;;;;;;;;4290775;33;20148;-70
2021/08/10 00:47:47;;;;;;;15.38;7.15;;;;;;;;;;4277302;33;20225;-70
2021/08/10 00:50:13;;;;;;;26.50;8.45;;;;;;;;;;4289318;33;20506;-70
2021/08/10 00:52:39;;;;;;;16.80;7.37;;;;;;;;;;4302801;33;20127;-70
2021/08/10 00:55:05;;;;;;;19.10;8.25;;;;;;;;;;4305902;33;20518;-70
2021/08/10 00:57:31;;;;;;;13.02;7.05;;;;;;;;;;4291925;33;20129;-69
2021/08/10 00:59:59;;;;;;;18.58;7.50;;;;;;;;;;4305695;33;20135;-70
2021/08/10 01:02:25;;;;;;;17.37;7.28;;;;;;;;;;4304767;33;20127;-70
2021/08/10 01:04:50;;;;;;;19.83;8.57;;;;;;;;;;4305060;33;20582;-69
2021/08/10 01:07:31;;;;;;;18.25;7.97;;;;;;;;;;4304864;33;20108;-70
2021/08/10 01:10:00;;;;;;;26.25;8.02;;;;;;;;;;4292959;33;20119;-70
2021/08/10 01:12:58;;;;;;;18.48;7.70;;;;;;;;;;4291304;33;20214;-69
2021/08/10 01:15:26;;;;;;;21.83;7.93;;;;;;;;;;4304958;33;20210;-69
2021/08/10 01:18:08;;;;;;;20.30;8.35;;;;;;;;;;4279215;33;20217;-70
2021/08/10 01:20:48;;;;;;;17.42;7.68;;;;;;;;;;4280451;33;20118;-69
2021/08/10 01:23:15;;;;;;;13.98;7.62;;;;;;;;;;4291361;33;20113;-69
2021/08/10 01:26:06;;;;;;;10.75;7.15;;;;;;;;;;4304766;33;20096;-70
2021/08/10 01:28:54;;;;;;;17.95;6.80;;;;;;;;;;4304942;33;20253;-69
2021/08/10 01:31:32;;;;;;;9.43;6.37;;;;;;;;;;4293404;33;20163;-69
2021/08/10 01:34:00;;;;;;;21.27;7.32;;;;;;;;;;4291529;33;20541;-68
2021/08/10 01:36:26;;;;;;;14.32;6.93;;;;;;;;;;4279655;33;20107;-68
2021/08/10 01:38:56;;;;;;;12.02;5.93;;;;;;;;;;4291165;33;20623;-68
2021/08/10 01:41:22;;;;;;;11.48;5.97;;;;;;;;;;4279431;33;20510;-68
2021/08/10 01:43:48;;;;;;;9.90;5.47;;;;;;;;;;4291168;33;20135;-69
2021/08/10 01:46:14;;;;;;;7.90;5.47;;;;;;;;;;4291327;33;20139;-68
2021/08/10 01:48:39;;;;;;;13.27;5.43;;;;;;;;;;4291187;33;20229;-68
2021/08/10 01:51:05;;;;;;;8.82;4.93;;;;;;;;;;4279309;33;20111;-68
2021/08/10 01:53:31;;;;;;;9.10;5.40;;;;;;;;;;4291421;33;20122;-68
2021/08/10 01:55:58;;;;;;;8.13;5.10;;;;;;;;;;4291273;33;20139;-68
2021/08/10 01:58:27;;;;;;;7.53;5.40;;;;;;;;;;4279254;33;20434;-68
2021/08/10 02:00:54;;;;;;;11.10;5.32;;;;;;;;;;4304461;33;20106;-68
2021/08/10 02:03:20;;;;;;;8.10;5.07;;;;;;;;;;4291210;33;20139;-68
2021/08/10 02:05:46;;;;;;;8.68;4.97;;;;;;;;;;4304234;33;20335;-69
2021/08/10 02:08:12;;;;;;;11.98;5.18;;;;;;;;;;4290945;33;20512;-69
2021/08/10 02:10:38;;;;;;;6.87;4.90;;;;;;;;;;4291042;33;20088;-69
2021/08/10 02:13:04;;;;;;;7.03;5.10;;;;;;;;;;4291265;33;20190;-67
2021/08/10 02:15:30;;;;;;;7.87;5.20;;;;;;;;;;4304539;33;20220;-67
2021/08/10 02:17:56;;;;;;;10.50;5.35;;;;;;;;;;4304039;33;20649;-68
2021/08/10 02:20:22;;;;;;;9.88;5.60;;;;;;;;;;4304298;33;20103;-68
2021/08/10 02:22:48;;;;;;;14.57;5.62;;;;;;;;;;4290868;33;20115;-68
2021/08/10 02:25:22;;;;;;;9.75;5.00;;;;;;;;;;4290891;33;20119;-68
2021/08/10 02:27:53;;;;;;;12.85;5.57;;;;;;;;;;4278885;33;20127;-68
2021/08/10 02:30:20;;;;;;;21.73;5.70;;;;;;;;;;4291002;33;20434;-68
2021/08/10 02:32:47;;;;;;;9.75;5.53;;;;;;;;;;4278752;33;20126;-68
2021/08/10 02:35:15;;;;;;;12.88;5.37;;;;;;;;;;4290919;33;20518;-68
2021/08/10 02:37:41;;;;;;;7.60;4.53;;;;;;;;;;4290691;33;20570;-67
2021/08/10 02:40:08;;;;;;;18.10;6.20;;;;;;;;;;4291014;33;20115;-68
2021/08/10 02:42:34;;;;;;;8.10;5.50;;;;;;;;;;4290932;33;20196;-67
2021/08/10 02:45:01;;;;;;;12.88;6.25;;;;;;;;;;4291018;33;20115;-67
2021/08/10 02:47:30;;;;;;;8.30;5.70;;;;;;;;;;4304428;33;20198;-67
2021/08/10 02:49:56;;;;;;;12.07;5.53;;;;;;;;;;4290926;33;20099;-70
2021/08/10 02:52:22;;;;;;;10.13;5.43;;;;;;;;;;4290478;33;20199;-68
2021/08/10 02:54:48;;;;;;;10.50;5.68;;;;;;;;;;4290872;33;20127;-68
2021/08/10 02:57:31;;;;;;;9.60;5.85;;;;;;;;;;4290502;33;20115;-68
2021/08/10 03:00:09;;;;;;;8.63;5.43;;;;;;;;;;4290789;33;20094;-67
2021/08/10 03:02:36;;;;;;;16.55;5.35;;;;;;;;;;4303775;33;20509;-67
2021/08/10 03:05:07;;;;;;;9.02;5.35;;;;;;;;;;4303765;33;20134;-66
2021/08/10 03:07:33;;;;;;;15.30;5.82;;;;;;;;;;4304003;33;20455;-67
2021/08/10 03:10:00;;;;;;;7.85;5.15;;;;;;;;;;4288627;33;20125;-67
2021/08/10 03:12:28;;;;;;;15.25;6.10;;;;;;;;;;4288401;33;20130;-67
2021/08/10 03:14:54;;;;;;;10.63;5.05;;;;;;;;;;4288252;33;20115;-67
2021/08/10 03:17:20;;;;;;;11.60;5.75;;;;;;;;;;4285243;33;20116;-66
2021/08/10 03:19:46;;;;;;;11.40;5.82;;;;;;;;;;4285486;33;20146;-67
2021/08/10 03:22:23;;;;;;;16.73;5.80;;;;;;;;;;4273652;33;20120;-68
2021/08/10 03:24:49;;;;;;;22.37;7.32;;;;;;;;;;4286262;33;20108;-67
2021/08/10 03:27:15;;;;;;;20.40;7.07;;;;;;;;;;4287905;33;20145;-69
2021/08/10 03:29:41;;;;;;;30.83;9.45;;;;;;;;;;4287822;33;20120;-69
2021/08/10 03:32:07;;;;;;;26.60;8.00;;;;;;;;;;4287701;33;20417;-69
2021/08/10 03:34:33;;;;;;;14.05;7.12;;;;;;;;;;4289244;33;20200;-69
2021/08/10 03:37:00;;;;;;;33.00;10.35;;;;;;;;;;4287867;33;20536;-70
2021/08/10 03:39:26;;;;;;;29.00;9.73;;;;;;;;;;4275698;33;20705;-69
2021/08/10 03:41:52;;;;;;;44.78;12.50;;;;;;;;;;4287783;33;20127;-69
2021/08/10 03:44:18;;;;;;;40.83;11.02;;;;;;;;;;4288952;33;20205;-69
2021/08/10 03:46:44;;;;;;;38.35;12.85;;;;;;;;;;4287480;33;20120;-68
2021/08/10 03:49:11;;;;;;;18.27;6.55;;;;;;;;;;4289196;33;20479;-69
2021/08/10 03:51:37;;;;;;;27.42;10.88;;;;;;;;;;4287646;33;20550;-69
2021/08/10 03:54:03;;;;;;;26.65;10.50;;;;;;;;;;4289114;33;20139;-69
2021/08/10 03:56:29;;;;;;;24.95;10.38;;;;;;;;;;4287330;33;20135;-67
2021/08/10 03:58:55;;;;;;;23.90;9.95;;;;;;;;;;4287296;33;20497;-70
2021/08/10 04:01:23;;;;;;;25.50;11.15;;;;;;;;;;4287371;33;20179;-69
2021/08/10 04:03:49;;;;;;;23.73;10.95;;;;;;;;;;4287527;33;20435;-69
2021/08/10 04:06:15;;;;;;;17.30;9.75;;;;;;;;;;4287177;33;20134;-69
2021/08/10 04:08:42;;;;;;;16.55;8.88;;;;;;;;;;4287282;33;20151;-70
2021/08/10 04:11:08;;;;;;;17.62;8.20;;;;;;;;;;4287550;33;20439;-70
2021/08/10 04:13:33;;;;;;;16.92;7.97;;;;;;;;;;4275229;33;20128;-69
2021/08/10 04:16:04;;;;;;;11.65;5.95;;;;;;;;;;4288155;33;20123;-69
2021/08/10 04:18:30;;;;;;;13.15;5.87;;;;;;;;;;4302334;33;20110;-70
2021/08/10 04:20:56;;;;;;;13.50;6.50;;;;;;;;;;4289209;33;20201;-69
2021/08/10 04:23:22;;;;;;;15.00;7.07;;;;;;;;;;4302875;33;20119;-68
2021/08/10 04:25:48;;;;;;;10.65;5.68;;;;;;;;;;4302861;33;20163;-68
2021/08/10 04:28:14;;;;;;;14.90;7.00;;;;;;;;;;4302796;33;20143;-68
2021/08/10 04:30:41;;;;;;;17.67;6.50;;;;;;;;;;4289664;33;20111;-68
2021/08/10 04:33:07;;;;;;;14.55;6.57;;;;;;;;;;4303049;33;20102;-68
2021/08/10 04:35:33;;;;;;;12.13;5.95;;;;;;;;;;4289494;33;20112;-69
2021/08/10 04:37:59;;;;;;;10.07;5.82;;;;;;;;;;4290377;33;20146;-68
2021/08/10 04:40:27;;;;;;;9.73;5.70;;;;;;;;;;4291714;33;20109;-69
2021/08/10 04:42:54;;;;;;;16.65;6.37;;;;;;;;;;4292216;33;20091;-68
2021/08/10 04:45:20;;;;;;;12.13;5.75;;;;;;;;;;4304991;33;20112;-68
2021/08/10 04:47:46;;;;;;;11.27;6.57;;;;;;;;;;4291809;33;20119;-68
2021/08/10 04:50:12;;;;;;;11.68;6.43;;;;;;;;;;4291524;33;20127;-69
2021/08/10 04:52:38;;;;;;;13.68;6.40;;;;;;;;;;4305257;33;20104;-68
2021/08/10 04:55:05;;;;;;;10.13;5.60;;;;;;;;;;4305141;33;20135;-68
2021/08/10 04:57:31;;;;;;;14.48;6.03;;;;;;;;;;4304961;33;20103;-68
2021/08/10 04:59:57;;;;;;;8.82;5.57;;;;;;;;;;4291619;33;20603;-68
2021/08/10 05:02:23;;;;;;;9.80;4.78;;;;;;;;;;4304832;33;20115;-67
2021/08/10 05:04:49;;;;;;;13.30;6.25;;;;;;;;;;4291768;33;20201;-68
2021/08/10 05:07:14;;;;;;;9.85;5.22;;;;;;;;;;4304878;33;20247;-68
2021/08/10 05:09:43;;;;;;;8.90;4.97;;;;;;;;;;4291418;33;20217;-68
2021/08/10 05:12:09;;;;;;;10.43;4.95;;;;;;;;;;4304635;33;20111;-68
2021/08/10 05:14:35;;;;;;;8.88;4.40;;;;;;;;;;4304697;33;20106;-68
2021/08/10 05:17:01;;;;;;;5.80;4.12;;;;;;;;;;4288581;33;20194;-68
2021/08/10 05:19:27;;;;;;;6.28;3.87;;;;;;;;;;4290378;33;20120;-68
2021/08/10 05:21:54;;;;;;;4.25;3.15;;;;;;;;;;4288950;33;20496;-68
2021/08/10 05:24:19;;;;;;;3.53;2.53;;;;;;;;;;4290456;33;20092;-68
2021/08/10 05:26:45;;;;;;;5.95;4.22;;;;;;;;;;4290307;33;20111;-68
2021/08/10 05:29:11;;;;;;;4.97;4.07;;;;;;;;;;4290205;33;20108;-68
2021/08/10 05:31:37;;;;;;;3.22;2.92;;;;;;;;;;4290152;33;20487;-68
2021/08/10 05:34:03;;;;;;;11.27;3.67;;;;;;;;;;4290361;33;20226;-68
2021/08/10 05:36:29;;;;;;;1.77;1.67;;;;;;;;;;4288677;33;20123;-68
2021/08/10 05:38:55;;;;;;;10.57;3.53;;;;;;;;;;4288736;33;20588;-69
2021/08/10 05:41:22;;;;;;;5.85;3.62;;;;;;;;;;4290130;33;20119;-69
2021/08/10 05:43:48;;;;;;;5.30;3.25;;;;;;;;;;4290048;33;20130;-69
2021/08/10 05:46:14;;;;;;;12.13;3.50;;;;;;;;;;4290108;33;20459;-69
2021/08/10 05:48:40;;;;;;;16.10;3.85;;;;;;;;;;4289744;33;20199;-69
2021/08/10 05:51:06;;;;;;;14.50;3.47;;;;;;;;;;4289839;33;20119;-69
2021/08/10 05:53:32;;;;;;;10.30;3.10;;;;;;;;;;4290183;33;20224;-70
2021/08/10 05:55:59;;;;;;;4.22;3.58;;;;;;;;;;4290579;33;20522;-69
2021/08/10 05:58:25;;;;;;;4.18;2.92;;;;;;;;;;4288861;33;20289;-69
2021/08/10 06:00:51;;;;;;;5.22;3.53;;;;;;;;;;4289969;33;20116;-71
2021/08/10 06:03:17;;;;;;;3.90;2.92;;;;;;;;;;4290242;33;20100;-70
2021/08/10 06:05:43;;;;;;;6.55;3.35;;;;;;;;;;4290076;33;20119;-70
2021/08/10 06:08:09;;;;;;;7.75;3.40;;;;;;;;;;4289982;33;20531;-67
2021/08/10 06:10:35;;;;;;;4.32;3.08;;;;;;;;;;4290022;33;20116;-68
2021/08/10 06:13:01;;;;;;;6.43;3.35;;;;;;;;;;4289857;33;20088;-68
2021/08/10 06:15:27;;;;;;;4.80;3.65;;;;;;;;;;4288687;33;20087;-67
2021/08/10 06:17:53;;;;;;;6.20;3.15;;;;;;;;;;4288224;33;20195;-68
2021/08/10 06:20:20;;;;;;;5.35;3.45;;;;;;;;;;4288610;33;20130;-68
2021/08/10 06:22:46;;;;;;;4.12;3.10;;;;;;;;;;4291497;33;20127;-68
2021/08/10 06:25:12;;;;;;;3.75;3.33;;;;;;;;;;4295687;33;20137;-68
2021/08/10 06:27:38;;;;;;;3.10;2.17;;;;;;;;;;4296459;33;20098;-68
2021/08/10 06:30:05;;;;;;;7.43;3.12;;;;;;;;;;4295985;33;20467;-68
2021/08/10 06:32:31;;;;;;;4.65;3.20;;;;;;;;;;4276359;33;20112;-68
2021/08/10 06:34:57;;;;;;;8.95;3.05;;;;;;;;;;4288326;33;20127;-68
2021/08/10 06:37:23;;;;;;;4.70;3.15;;;;;;;;;;4288249;33;20570;-68
2021/08/10 06:39:49;;;;;;;4.12;3.33;;;;;;;;;;4289692;33;20127;-68
2021/08/10 06:42:21;;;;;;;6.43;3.80;;;;;;;;;;4289442;33;20123;-69
2021/08/10 06:44:47;;;;;;;4.47;3.17;;;;;;;;;;4288142;33;20558;-69
2021/08/10 06:47:14;;;;;;;4.37;3.50;;;;;;;;;;4288349;33;20120;-69
2021/08/10 06:49:40;;;;;;;5.78;3.30;;;;;;;;;;4289510;33;20120;-69
2021/08/10 06:52:06;;;;;;;5.72;3.47;;;;;;;;;;4289353;33;20118;-69
2021/08/10 06:54:32;;;;;;;1.60;1.50;;;;;;;;;;4289550;33;20126;-69
2021/08/10 06:57:04;;;;;;;3.95;2.40;;;;;;;;;;4289373;33;20111;-68
2021/08/10 06:59:31;;;;;;;2.78;2.42;;;;;;;;;;4288971;33;20147;-69
2021/08/10 07:01:57;;;;;;;4.28;2.97;;;;;;;;;;4287798;33;20517;-69
2021/08/10 07:04:23;;;;;;;3.83;3.00;;;;;;;;;;4288292;33;20134;-69
2021/08/10 07:06:49;;;;;;;5.20;3.97;;;;;;;;;;4287847;33;20116;-69
2021/08/10 07:09:15;;;;;;;7.07;3.75;;;;;;;;;;4287907;33;20206;-67
2021/08/10 07:11:42;;;;;;;6.43;3.22;;;;;;;;;;4287852;33;20220;-67
2021/08/10 07:14:12;;;;;;;7.80;4.15;;;;;;;;;;4289092;33;20095;-68
2021/08/10 07:16:40;;;;;;;11.50;4.20;;;;;;;;;;4292236;33;20131;-67
2021/08/10 07:19:09;;;;;;;8.82;4.00;;;;;;;;;;4290218;33;20108;-69
2021/08/10 07:21:37;;;;;;;6.00;4.10;;;;;;;;;;4295099;33;20111;-69
2021/08/10 07:24:03;;;;;;;7.10;3.58;;;;;;;;;;4300744;33;20193;-69
2021/08/10 07:26:29;;;;;;;8.80;4.18;;;;;;;;;;4289013;33;20103;-70
2021/08/10 07:28:55;;;;;;;14.02;4.12;;;;;;;;;;4295436;33;20119;-69
2021/08/10 07:31:21;;;;;;;15.88;3.87;;;;;;;;;;4303742;33;20111;-69
2021/08/10 07:33:47;;;;;;;6.43;3.50;;;;;;;;;;4303714;33;20470;-70
2021/08/10 07:36:13;;;;;;;7.10;4.53;;;;;;;;;;4290007;33;20111;-69
2021/08/10 07:38:41;;;;;;;5.20;3.65;;;;;;;;;;4276601;33;20128;-68
2021/08/10 07:41:07;;;;;;;7.22;4.32;;;;;;;;;;4288836;33;20099;-68
2021/08/10 07:43:36;;;;;;;5.43;3.92;;;;;;;;;;4275699;33;20119;-68
2021/08/10 07:46:02;;;;;;;9.68;3.83;;;;;;;;;;4288876;33;20546;-67
2021/08/10 07:48:28;;;;;;;7.12;3.87;;;;;;;;;;4288883;33;20123;-68
2021/08/10 07:50:55;;;;;;;7.95;4.78;;;;;;;;;;4288713;33;20116;-69
2021/08/10 07:53:21;;;;;;;14.93;4.70;;;;;;;;;;4288865;33;20126;-68
2021/08/10 07:55:48;;;;;;;7.30;5.50;;;;;;;;;;4303101;33;20088;-68
2021/08/10 07:58:14;;;;;;;9.27;5.07;;;;;;;;;;4289955;33;20273;-68
2021/08/10 08:00:40;;;;;;;15.82;6.43;;;;;;;;;;4289806;33;20131;-68
2021/08/10 08:03:06;;;;;;;14.32;6.10;;;;;;;;;;4303269;33;20533;-68
2021/08/10 08:05:32;;;;;;;11.80;7.07;;;;;;;;;;4301911;33;20103;-68
2021/08/10 08:07:58;;;;;;;11.82;5.47;;;;;;;;;;4289917;33;20131;-69
2021/08/10 08:10:24;;;;;;;9.23;5.62;;;;;;;;;;4303360;33;20110;-69
2021/08/10 08:12:50;;;;;;;10.05;6.20;;;;;;;;;;4305037;33;20214;-69
2021/08/10 08:15:16;;;;;;;12.75;5.35;;;;;;;;;;4305342;33;20104;-69
2021/08/10 08:17:42;;;;;;;12.48;5.57;;;;;;;;;;4305183;33;20498;-69
2021/08/10 08:20:08;;;;;;;9.85;5.47;;;;;;;;;;4291789;33;20142;-69
2021/08/10 08:22:34;;;;;;;12.23;6.50;;;;;;;;;;4305407;33;20107;-69
2021/08/10 08:25:00;;;;;;;13.68;5.95;;;;;;;;;;4292015;33;20126;-69
2021/08/10 08:27:26;;;;;;;13.65;6.55;;;;;;;;;;4305115;33;20617;-68
2021/08/10 08:29:52;;;;;;;25.42;7.65;;;;;;;;;;4291677;33;20149;-68
2021/08/10 08:32:18;;;;;;;25.88;7.43;;;;;;;;;;4305559;33;20210;-69
2021/08/10 08:34:44;;;;;;;16.48;7.12;;;;;;;;;;4305152;33;20229;-68
2021/08/10 08:37:11;;;;;;;13.32;7.10;;;;;;;;;;4304911;33;20139;-69
2021/08/10 08:39:37;;;;;;;14.70;7.62;;;;;;;;;;4304955;33;20158;-68
2021/08/10 08:42:03;;;;;;;14.50;6.68;;;;;;;;;;4291617;33;20193;-68
2021/08/10 08:44:34;;;;;;;10.77;6.15;;;;;;;;;;4291770;33;20127;-69
2021/08/10 08:47:07;;;;;;;8.77;6.97;;;;;;;;;;4292315;33;20490;-68
2021/08/10 08:49:34;;;;;;;19.60;9.82;;;;;;;;;;4304986;33;20115;-68
2021/08/10 08:52:01;;;;;;;24.73;10.68;;;;;;;;;;4279855;33;20118;-68
2021/08/10 08:54:28;;;;;;;21.27;11.05;;;;;;;;;;4305147;33;20124;-68
2021/08/10 08:56:54;;;;;;;14.45;10.25;;;;;;;;;;4291518;33;20084;-68
2021/08/10 08:59:21;;;;;;;17.05;9.50;;;;;;;;;;4305329;33;20111;-68
2021/08/10 09:01:49;;;;;;;21.30;9.73;;;;;;;;;;4291783;33;20129;-68
2021/08/10 09:04:15;;;;;;;11.38;7.97;;;;;;;;;;4280259;33;20211;-68
2021/08/10 09:06:41;;;;;;;12.88;8.02;;;;;;;;;;4291525;33;20104;-68
2021/08/10 09:09:21;;;;;;;17.70;8.02;;;;;;;;;;4304821;33;20221;-68
2021/08/10 09:12:01;;;;;;;16.12;9.90;;;;;;;;;;4305195;33;20163;-67
2021/08/10 09:14:46;;;;;;;14.75;8.55;;;;;;;;;;4291731;33;20114;-68
2021/08/10 09:17:13;;;;;;;;;;;;;;;;;;4305215;33;20096;-68
2021/08/10 09:20:06;;;;;;;11.00;5.20;;;;;;;;;;4304959;33;20070;-68
2021/08/10 09:22:33;;;;;;;8.13;5.47;;;;;;;;;;4301828;33;20107;-66
2021/08/10 09:25:01;;;;;;;10.60;4.97;;;;;;;;;;4291234;33;20109;-67
2021/08/10 09:27:31;;;;;;;12.70;5.00;;;;;;;;;;4291430;33;20191;-65
2021/08/10 09:29:58;;;;;;;15.95;4.53;;;;;;;;;;4304853;33;20451;-65
2021/08/10 09:32:24;;;;;;;4.32;3.65;;;;;;;;;;4304897;33;20194;-65
2021/08/10 09:35:21;;;;;;;14.63;3.80;;;;;;;;;;4291335;33;20212;-65
2021/08/10 09:38:09;;;;;;;8.25;4.72;;;;;;;;;;4304746;33;20446;-66
2021/08/10 09:40:48;;;;;;;9.15;3.87;;;;;;;;;;4291381;33;20090;-65
2021/08/10 09:43:32;;;;;;;7.68;4.37;;;;;;;;;;4291369;33;20143;-65
2021/08/10 09:46:11;;;;;;;6.72;4.25;;;;;;;;;;4304654;33;20102;-66
2021/08/10 09:48:49;;;;;;;9.23;4.30;;;;;;;;;;4291222;33;20197;-67
2021/08/10 09:51:17;;;;;;;6.40;4.20;;;;;;;;;;4304661;33;20661;-67
2021/08/10 09:53:52;;;;;;;10.35;5.00;;;;;;;;;;4304540;33;20190;-68
2021/08/10 09:56:18;;;;;;;15.68;7.20;;;;;;;;;;4291258;33;20107;-68
2021/08/10 09:58:57;;;;;;;14.00;5.45;;;;;;;;;;4279272;33;20143;-68
2021/08/10 10:01:54;;;;;;;9.82;5.10;;;;;;;;;;4304466;33;20119;-68
2021/08/10 10:04:22;;;;;;;6.25;4.95;;;;;;;;;;4304183;33;20428;-70
2021/08/10 10:06:50;;;;;;;8.43;5.47;;;;;;;;;;4291068;33;20112;-70
2021/08/10 10:09:16;;;;;;;10.15;6.35;;;;;;;;;;4290975;33;20121;-70
2021/08/10 10:11:43;;;;;;;17.58;7.03;;;;;;;;;;4304076;33;20553;-70
2021/08/10 10:14:11;;;;;;;11.12;5.18;;;;;;;;;;4304222;33;20186;-70
2021/08/10 10:16:49;;;;;;;11.55;7.47;;;;;;;;;;4289367;33;20107;-70
2021/08/10 10:19:16;;;;;;;12.27;6.80;;;;;;;;;;4279839;33;20127;-70
2021/08/10 10:21:53;;;;;;;18.77;6.40;;;;;;;;;;4290804;33;20185;-70
2021/08/10 10:24:20;;;;;;;10.98;6.62;;;;;;;;;;4304211;33;20127;-69
2021/08/10 10:26:47;;;;;;;22.05;7.15;;;;;;;;;;4304055;33;20095;-69
2021/08/10 10:29:14;;;;;;;13.48;8.15;;;;;;;;;;4290681;33;20110;-70
2021/08/10 10:31:40;;;;;;;10.38;6.93;;;;;;;;;;4304430;33;20094;-70
2021/08/10 10:34:06;;;;;;;10.93;4.80;;;;;;;;;;4290657;33;20465;-69
2021/08/10 10:36:34;;;;;;;11.98;5.12;;;;;;;;;;4290464;33;20122;-70
2021/08/10 10:39:00;;;;;;;6.30;4.22;;;;;;;;;;4304693;33;20131;-70
2021/08/10 10:41:30;;;;;;;5.68;4.00;;;;;;;;;;4279365;33;20522;-70
2021/08/10 10:43:56;;;;;;;7.18;4.82;;;;;;;;;;4279297;33;20109;-70
2021/08/10 10:46:33;;;;;;;7.45;4.15;;;;;;;;;;4304004;33;20190;-70
2021/08/10 10:49:03;;;;;;;4.37;3.20;;;;;;;;;;4304275;33;20102;-70
2021/08/10 10:51:31;;;;;;;4.60;3.25;;;;;;;;;;4290458;33;20095;-70
2021/08/10 10:54:25;;;;;;;5.20;3.45;;;;;;;;;;4304137;33;20119;-68
2021/08/10 10:56:59;;;;;;;4.07;2.92;;;;;;;;;;4303834;33;20208;-69
2021/08/10 10:59:30;;;;;;;5.32;3.00;;;;;;;;;;4304160;33;20119;-69
2021/08/10 11:02:19;;;;;;;5.62;2.53;;;;;;;;;;4290881;33;20091;-70
2021/08/10 11:05:07;;;;;;;3.72;2.97;;;;;;;;;;4303860;33;20130;-69
2021/08/10 11:07:43;;;;;;;8.18;3.05;;;;;;;;;;4304068;33;20195;-70
2021/08/10 11:10:47;;;;;;;4.03;2.75;;;;;;;;;;4303987;33;20186;-69
2021/08/10 11:13:18;;;;;;;3.95;2.97;;;;;;;;;;4303797;33;20209;-69
2021/08/10 11:15:44;;;;;;;4.25;3.00;;;;;;;;;;4303628;33;20131;-69
2021/08/10 11:18:10;;;;;;;3.92;3.10;;;;;;;;;;4303397;33;20126;-69
2021/08/10 11:20:43;;;;;;;5.03;3.20;;;;;;;;;;4303639;33;20134;-69
2021/08/10 11:23:19;;;;;;;7.12;2.97;;;;;;;;;;4303574;33;20116;-70
2021/08/10 11:25:46;;;;;;;5.82;2.80;;;;;;;;;;4290064;33;20103;-69
2021/08/10 11:28:31;;;;;;;4.65;2.70;;;;;;;;;;4290374;33;20119;-69
2021/08/10 11:31:08;;;;;;;3.92;3.05;;;;;;;;;;4303472;33;20104;-69
2021/08/10 11:33:35;;;;;;;5.05;3.05;;;;;;;;;;4303532;33;20519;-70
2021/08/10 11:36:10;;;;;;;5.40;2.80;;;;;;;;;;4303297;33;20123;-69
2021/08/10 11:38:48;;;;;;;3.58;2.80;;;;;;;;;;4303441;33;20123;-69
2021/08/10 11:41:15;;;;;;;4.60;3.15;;;;;;;;;;4303409;33;20177;-69
2021/08/10 11:43:52;;;;;;;6.32;3.33;;;;;;;;;;4290092;33;20116;-69
2021/08/10 11:46:28;;;;;;;6.03;3.03;;;;;;;;;;4304164;33;20127;-69
2021/08/10 11:49:02;;;;;;;8.32;2.85;;;;;;;;;;4292949;33;20218;-69
2021/08/10 11:51:37;;;;;;;5.37;3.03;;;;;;;;;;4292149;33;20529;-69
2021/08/10 11:54:24;;;;;;;6.07;3.12;;;;;;;;;;4292832;33;20119;-70
2021/08/10 11:56:55;;;;;;;3.10;2.65;;;;;;;;;;4292579;33;20217;-69
2021/08/10 11:59:24;;;;;;;6.82;3.42;;;;;;;;;;4305484;33;20122;-70
2021/08/10 12:01:51;;;;;;;4.60;2.83;;;;;;;;;;4305505;33;20120;-69
2021/08/10 12:04:21;;;;;;;5.68;3.25;;;;;;;;;;4305444;33;20099;-70
2021/08/10 12:06:48;;;;;;;3.80;3.10;;;;;;;;;;4305483;33;20133;-69
2021/08/10 12:09:16;;;;;;;5.65;2.83;;;;;;;;;;4280146;33;20480;-70
2021/08/10 12:11:43;;;;;;;4.53;2.83;;;;;;;;;;4305072;33;20107;-69
2021/08/10 12:14:16;;;;;;;5.90;3.30;;;;;;;;;;4305393;33;20290;-69
2021/08/10 12:17:01;;;;;;;4.95;2.90;;;;;;;;;;4291754;33;20116;-70
2021/08/10 12:19:38;;;;;;;3.62;2.92;;;;;;;;;;4305319;33;20103;-69
2021/08/10 12:22:14;;;;;;;3.95;2.55;;;;;;;;;;4292018;33;20115;-69
2021/08/10 12:24:40;;;;;;;5.78;2.78;;;;;;;;;;4292563;33;20130;-70
2021/08/10 12:27:07;;;;;;;3.90;2.95;;;;;;;;;;4291770;33;20119;-69
2021/08/10 12:29:43;;;;;;;4.03;3.17;;;;;;;;;;4305502;33;20171;-69
2021/08/10 12:32:10;;;;;;;8.27;4.30;;;;;;;;;;4305191;33;20123;-70
2021/08/10 12:34:37;;;;;;;3.72;3.28;;;;;;;;;;4305276;33;20127;-70
2021/08/10 12:37:04;;;;;;;6.97;3.10;;;;;;;;;;4305087;33;20100;-69
2021/08/10 12:39:31;;;;;;;7.30;2.83;;;;;;;;;;4292056;33;20431;-69
2021/08/10 12:41:57;;;;;;;5.47;2.90;;;;;;;;;;4291661;33;20119;-69
2021/08/10 12:44:27;;;;;;;4.00;2.42;;;;;;;;;;4291860;33;20126;-69
2021/08/10 12:47:06;;;;;;;3.35;2.62;;;;;;;;;;4291729;33;20477;-69
2021/08/10 12:49:44;;;;;;;7.22;2.70;;;;;;;;;;4305346;33;20221;-70
2021/08/10 12:52:11;;;;;;;5.80;3.17;;;;;;;;;;4291420;33;20109;-70
2021/08/10 12:54:46;;;;;;;3.83;3.00;;;;;;;;;;4291842;33;20096;-69
2021/08/10 12:57:20;;;;;;;3.12;2.83;;;;;;;;;;4304500;33;20553;-69
2021/08/10 12:59:52;;;;;;;7.40;3.28;;;;;;;;;;4304614;33;20188;-70
2021/08/10 13:02:36;;;;;;;2.83;2.62;;;;;;;;;;4291932;33;20393;-70
2021/08/10 13:05:04;;;;;;;6.00;3.53;;;;;;;;;;4305045;33;20221;-70
2021/08/10 13:07:30;;;;;;;6.90;2.80;;;;;;;;;;4305072;33;20218;-70
2021/08/10 13:09:57;;;;;;;5.53;3.20;;;;;;;;;;4291601;33;20146;-69
2021/08/10 13:12:24;;;;;;;7.28;3.08;;;;;;;;;;4279457;33;20123;-70
2021/08/10 13:15:05;;;;;;;4.93;2.78;;;;;;;;;;4304954;33;20104;-70
2021/08/10 13:17:45;;;;;;;5.78;3.10;;;;;;;;;;4304405;33;20190;-69
2021/08/10 13:20:17;;;;;;;6.15;3.15;;;;;;;;;;4305081;33;20552;-70
2021/08/10 13:22:45;;;;;;;7.72;2.95;;;;;;;;;;4281887;33;20111;-69
2021/08/10 13:25:17;;;;;;;4.53;2.80;;;;;;;;;;4290433;33;20518;-69
2021/08/10 13:27:43;;;;;;;5.85;2.92;;;;;;;;;;4289897;33;20104;-70
2021/08/10 13:30:25;;;;;;;4.05;3.08;;;;;;;;;;4290180;33;20628;-70
2021/08/10 13:33:11;;;;;;;6.93;3.45;;;;;;;;;;4289237;33;20111;-69
2021/08/10 13:35:37;;;;;;;4.07;2.92;;;;;;;;;;4290285;33;20112;-68
2021/08/10 13:38:04;;;;;;;3.47;2.87;;;;;;;;;;4290308;33;20130;-68
2021/08/10 13:40:33;;;;;;;7.93;2.78;;;;;;;;;;4290425;33;20099;-66
2021/08/10 13:43:00;;;;;;;5.87;2.85;;;;;;;;;;4290047;33;20147;-66
2021/08/10 13:45:28;;;;;;;3.37;2.92;;;;;;;;;;4290056;33;20127;-66
2021/08/10 13:47:55;;;;;;;3.53;3.08;;;;;;;;;;4290058;33;20606;-65
2021/08/10 13:50:21;;;;;;;8.77;3.25;;;;;;;;;;4288603;33;20514;-65
2021/08/10 13:52:47;;;;;;;3.92;3.53;;;;;;;;;;4290357;33;20118;-66
2021/08/10 13:55:13;;;;;;;6.62;3.72;;;;;;;;;;4289949;33;20201;-66
2021/08/10 13:57:44;;;;;;;6.15;3.45;;;;;;;;;;4290140;33;20128;-66
2021/08/10 14:00:12;;;;;;;11.52;3.90;;;;;;;;;;4289959;33;20111;-66
2021/08/10 14:02:41;;;;;;;5.65;3.72;;;;;;;;;;4290201;33;20162;-68
2021/08/10 14:05:09;;;;;;;6.85;3.28;;;;;;;;;;4289853;33;20104;-65
2021/08/10 14:07:35;;;;;;;4.60;3.50;;;;;;;;;;4289903;33;20514;-66
2021/08/10 14:10:03;;;;;;;7.95;3.70;;;;;;;;;;4288179;33;20538;-66
2021/08/10 14:12:29;;;;;;;4.87;3.28;;;;;;;;;;4290119;33;20112;-67
2021/08/10 14:14:55;;;;;;;3.65;2.83;;;;;;;;;;4289884;33;20226;-67
2021/08/10 14:17:20;;;;;;;5.62;3.00;;;;;;;;;;4289596;33;20139;-67
2021/08/10 14:19:46;;;;;;;5.72;3.15;;;;;;;;;;4288644;33;20131;-67
2021/08/10 14:22:12;;;;;;;6.20;3.12;;;;;;;;;;4294351;33;20452;-67
2021/08/10 14:24:38;;;;;;;3.47;3.08;;;;;;;;;;4304346;33;20135;-68
2021/08/10 14:27:04;;;;;;;4.60;3.35;;;;;;;;;;4290821;33;20218;-66
2021/08/10 14:29:30;;;;;;;7.62;3.25;;;;;;;;;;4304197;33;20114;-65
2021/08/10 14:31:56;;;;;;;4.30;3.10;;;;;;;;;;4304031;33;20506;-68
2021/08/10 14:34:22;;;;;;;6.70;3.40;;;;;;;;;;4291145;33;20130;-69
2021/08/10 14:36:52;;;;;;;9.75;3.30;;;;;;;;;;4290689;33;20095;-69
2021/08/10 14:39:20;;;;;;;4.53;3.12;;;;;;;;;;4300536;33;20131;-69
2021/08/10 14:41:46;;;;;;;6.28;3.47;;;;;;;;;;4293345;33;20479;-69
2021/08/10 14:44:12;;;;;;;4.18;3.50;;;;;;;;;;4300701;33;20131;-69
2021/08/10 14:46:42;;;;;;;3.60;3.25;;;;;;;;;;4272986;33;20270;-69
2021/08/10 14:49:08;;;;;;;6.55;3.17;;;;;;;;;;4276467;33;20129;-66
2021/08/10 14:51:34;;;;;;;4.57;3.22;;;;;;;;;;4299574;33;20198;-65
2021/08/10 14:54:00;;;;;;;4.87;3.28;;;;;;;;;;4304008;33;20110;-64
2021/08/10 14:56:28;;;;;;;6.43;3.87;;;;;;;;;;4304081;33;20111;-65
2021/08/10 14:58:54;;;;;;;4.85;3.53;;;;;;;;;;4301200;33;20115;-65
2021/08/10 15:01:20;;;;;;;5.18;3.62;;;;;;;;;;4289377;33;20201;-69
2021/08/10 15:03:46;;;;;;;4.75;3.70;;;;;;;;;;4289368;33;20126;-69
2021/08/10 15:06:13;;;;;;;4.85;3.50;;;;;;;;;;4289211;33;20201;-70